Time;durP1;ratioP1;P1;durP2;ratioP2;P2;SDS_P1;SDS_P2;PMS_P1;PMS_P2;Temp;Humidity;BMP_temperature;BMP_pressure;BME280_temperature;BME280_humidity;BME280_pressure;Samples;Min_cycle;Max_cycle;Signal;HPM_P1;HPM_P2
2023/04/05 00:00:31;;;;;;;2.10;1.02;;;7.10;55.20;;;;;;5042189;28;20037;-70
2023/04/05 00:02:58;;;;;;;0.93;0.93;;;7.10;55.30;;;;;;5042321;28;20020;-70
2023/04/05 00:05:33;;;;;;;1.38;1.08;;;7.00;55.30;;;;;;5038560;28;20037;-70
2023/04/05 00:08:02;;;;;;;1.98;1.33;;;7.00;55.50;;;;;;5037772;28;20525;-71
2023/04/05 00:10:30;;;;;;;1.13;1.05;;;6.90;55.60;;;;;;5036365;28;20036;-65
2023/04/05 00:12:56;;;;;;;1.60;0.90;;;6.80;55.70;;;;;;5026162;28;20065;-70
2023/04/05 00:15:22;;;;;;;0.93;0.90;;;6.80;55.60;;;;;;5037580;28;20124;-70
2023/04/05 00:17:48;;;;;;;1.58;1.20;;;6.80;55.70;;;;;;5048426;28;20041;-64
2023/04/05 00:20:14;;;;;;;1.88;1.40;;;6.80;55.70;;;;;;5013279;28;20413;-64
2023/04/05 00:22:42;;;;;;;1.00;0.90;;;6.70;55.70;;;;;;5034817;28;20026;-69
2023/04/05 00:25:08;;;;;;;1.23;1.15;;;6.70;55.90;;;;;;5034701;28;20036;-70
2023/04/05 00:27:34;;;;;;;1.27;0.90;;;6.70;56.10;;;;;;5033632;28;20029;-70
2023/04/05 00:30:00;;;;;;;1.58;1.00;;;6.60;56.10;;;;;;5031152;28;20040;-65
2023/04/05 00:32:26;;;;;;;3.03;1.00;;;6.60;56.10;;;;;;5020046;28;20128;-64
2023/04/05 00:34:51;;;;;;;2.13;1.27;;;6.60;56.10;;;;;;5020522;28;20112;-64
2023/04/05 00:37:17;;;;;;;1.10;1.00;;;6.60;56.20;;;;;;5046859;28;20064;-69
2023/04/05 00:39:42;;;;;;;1.08;0.98;;;6.60;56.20;;;;;;5025733;28;20525;-65
2023/04/05 00:42:08;;;;;;;1.48;1.10;;;6.60;56.30;;;;;;5036446;28;20088;-64
2023/04/05 00:44:34;;;;;;;1.55;0.77;;;6.50;56.30;;;;;;5040484;28;20040;-70
2023/04/05 00:47:05;;;;;;;2.13;1.45;;;6.50;56.40;;;;;;5040678;28;20565;-70
2023/04/05 00:49:35;;;;;;;4.10;1.45;;;6.50;56.30;;;;;;5021953;28;20032;-69
2023/04/05 00:52:01;;;;;;;1.38;0.90;;;6.50;56.40;;;;;;5044105;28;20064;-64
2023/04/05 00:54:28;;;;;;;1.33;1.00;;;6.50;56.50;;;;;;5038262;28;20060;-70
2023/04/05 00:56:58;;;;;;;1.25;1.02;;;6.50;56.50;;;;;;5041154;28;20037;-70
2023/04/05 00:59:30;;;;;;;1.35;1.00;;;6.50;56.70;;;;;;5041442;28;20025;-70
2023/04/05 01:02:05;;;;;;;3.57;1.10;;;6.40;56.80;;;;;;5031876;28;20038;-64
2023/04/05 01:04:35;;;;;;;1.80;1.10;;;6.40;56.90;;;;;;5037061;28;20360;-65
2023/04/05 01:07:07;;;;;;;1.38;1.13;;;6.30;57.10;;;;;;5040634;28;20033;-70
2023/04/05 01:09:38;;;;;;;1.63;1.23;;;6.30;57.20;;;;;;5031927;28;20041;-65
2023/04/05 01:12:07;;;;;;;0.90;0.87;;;6.30;57.20;;;;;;5040406;28;20036;-70
2023/04/05 01:14:49;;;;;;;2.22;1.25;;;6.20;57.40;;;;;;5037146;28;20017;-70
2023/04/05 01:17:20;;;;;;;0.80;0.80;;;6.20;57.50;;;;;;5041199;28;20024;-70
2023/04/05 01:19:52;;;;;;;1.38;1.25;;;6.10;57.70;;;;;;5030599;28;20057;-70
2023/04/05 01:22:48;;;;;;;2.67;1.40;;;6.10;57.90;;;;;;5045125;28;20025;-70
2023/04/05 01:25:47;;;;;;;2.33;1.33;;;6.00;57.90;;;;;;5043702;28;20029;-70
2023/04/05 01:28:56;;;;;;;2.22;1.25;;;5.90;58.10;;;;;;5040370;28;20385;-70
2023/04/05 01:31:48;;;;;;;1.88;1.35;;;5.90;58.40;;;;;;5038089;28;20480;-70
2023/04/05 01:34:40;;;;;;;1.88;1.25;;;5.80;58.80;;;;;;5010727;28;20026;-70
2023/04/05 01:37:11;;;;;;;5.03;1.75;;;5.70;58.70;;;;;;5011191;28;20037;-63
2023/04/05 01:39:37;;;;;;;2.13;1.40;;;5.70;59.00;;;;;;5024695;28;20101;-64
2023/04/05 01:42:03;;;;;;;1.70;1.02;;;5.60;59.10;;;;;;5016124;28;20040;-70
2023/04/05 01:44:29;;;;;;;1.88;1.70;;;5.60;59.20;;;;;;5031708;28;20036;-70
2023/04/05 01:46:55;;;;;;;1.45;1.08;;;5.50;59.30;;;;;;5030150;28;20048;-65
2023/04/05 01:49:22;;;;;;;0.90;0.85;;;5.50;59.40;;;;;;5046467;28;20037;-65
2023/04/05 01:51:47;;;;;;;2.42;1.40;;;5.50;59.50;;;;;;5036344;28;20033;-70
2023/04/05 01:54:13;;;;;;;1.77;1.05;;;5.50;59.60;;;;;;5028258;28;20108;-70
2023/04/05 01:56:39;;;;;;;1.90;1.23;;;5.40;59.70;;;;;;5043317;28;20048;-70
2023/04/05 01:59:05;;;;;;;2.17;1.35;;;5.40;59.90;;;;;;5025804;28;20033;-70
2023/04/05 02:01:31;;;;;;;2.85;1.42;;;5.30;60.10;;;;;;5020973;28;20041;-70
2023/04/05 02:03:57;;;;;;;2.90;1.83;;;5.30;60.20;;;;;;5024229;28;20514;-64
2023/04/05 02:06:22;;;;;;;1.77;1.67;;;5.30;60.30;;;;;;5033573;28;20030;-65
2023/04/05 02:08:48;;;;;;;4.05;1.63;;;5.30;60.50;;;;;;5005970;28;20029;-63
2023/04/05 02:11:14;;;;;;;2.90;1.55;;;5.20;60.60;;;;;;5040300;28;20030;-69
2023/04/05 02:13:39;;;;;;;2.78;1.52;;;5.20;60.40;;;;;;5045625;28;20033;-70
2023/04/05 02:16:05;;;;;;;4.45;2.05;;;5.20;60.40;;;;;;5032898;28;20041;-69
2023/04/05 02:18:31;;;;;;;4.95;1.73;;;5.20;60.50;;;;;;5039762;28;20032;-70
2023/04/05 02:21:01;;;;;;;1.80;1.38;;;5.10;60.50;;;;;;5042480;28;20381;-69
2023/04/05 02:23:29;;;;;;;1.48;1.10;;;5.10;60.60;;;;;;5021132;28;20036;-70
2023/04/05 02:25:55;;;;;;;3.70;1.63;;;5.10;60.80;;;;;;5041767;28;20155;-70
2023/04/05 02:28:21;;;;;;;1.63;1.52;;;5.10;60.90;;;;;;5023946;28;20030;-71
2023/04/05 02:30:46;;;;;;;2.92;1.80;;;5.10;60.80;;;;;;5037056;28;20055;-65
2023/04/05 02:33:12;;;;;;;4.22;1.33;;;5.10;60.70;;;;;;5028060;28;20106;-70
2023/04/05 02:35:38;;;;;;;5.43;2.22;;;5.00;60.80;;;;;;5030023;28;20024;-70
2023/04/05 02:38:04;;;;;;;3.28;1.73;;;5.00;60.70;;;;;;5042315;28;20072;-69
2023/04/05 02:40:30;;;;;;;4.18;1.50;;;5.00;60.90;;;;;;5024399;28;20618;-70
2023/04/05 02:42:56;;;;;;;5.47;2.15;;;5.00;61.10;;;;;;5038279;28;20021;-64
2023/04/05 02:45:22;;;;;;;2.22;1.08;;;4.90;61.20;;;;;;5042448;28;20029;-70
2023/04/05 02:47:48;;;;;;;12.07;1.70;;;4.80;61.30;;;;;;5040464;28;20029;-70
2023/04/05 02:50:13;;;;;;;3.47;1.17;;;4.80;61.40;;;;;;5037524;28;20025;-70
2023/04/05 02:52:39;;;;;;;1.88;1.48;;;4.80;61.60;;;;;;5044201;28;20033;-71
2023/04/05 02:55:05;;;;;;;2.25;1.30;;;4.70;61.80;;;;;;5022030;28;20041;-70
2023/04/05 02:57:31;;;;;;;3.17;1.55;;;4.70;62.00;;;;;;5048381;28;20043;-70
2023/04/05 02:59:57;;;;;;;1.77;1.27;;;4.70;62.00;;;;;;5029804;28;20112;-64
2023/04/05 03:02:23;;;;;;;3.00;1.45;;;4.70;61.90;;;;;;5028221;28;20136;-64
2023/04/05 03:04:52;;;;;;;6.10;1.45;;;4.70;62.00;;;;;;5042043;28;20033;-70
2023/04/05 03:07:17;;;;;;;3.03;1.65;;;4.60;62.10;;;;;;5047848;28;20037;-70
2023/04/05 03:09:46;;;;;;;3.10;1.70;;;4.60;62.20;;;;;;5041102;28;20452;-71
2023/04/05 03:12:12;;;;;;;2.20;1.83;;;4.60;62.30;;;;;;5046156;28;20149;-69
2023/04/05 03:14:39;;;;;;;2.70;1.65;;;4.60;62.40;;;;;;5029296;28;20140;-70
2023/04/05 03:17:05;;;;;;;2.55;1.27;;;4.60;62.60;;;;;;5043540;28;20041;-70
2023/04/05 03:19:31;;;;;;;1.58;1.02;;;4.50;62.50;;;;;;5046281;28;20044;-71
2023/04/05 03:21:59;;;;;;;1.60;1.13;;;4.50;62.50;;;;;;5041285;28;20377;-65
2023/04/05 03:24:25;;;;;;;3.72;1.73;;;4.50;62.50;;;;;;5045266;28;20024;-65
2023/04/05 03:26:51;;;;;;;4.38;1.55;;;4.50;62.60;;;;;;5036943;28;20026;-64
2023/04/05 03:29:17;;;;;;;2.78;1.98;;;4.50;62.80;;;;;;5036735;28;20035;-65
2023/04/05 03:31:44;;;;;;;2.67;1.70;;;4.50;62.90;;;;;;5021253;28;20038;-66
2023/04/05 03:34:10;;;;;;;1.98;1.67;;;4.40;63.10;;;;;;5038923;28;20025;-67
2023/04/05 03:36:42;;;;;;;4.20;1.65;;;4.40;63.20;;;;;;5029296;28;20385;-66
2023/04/05 03:39:12;;;;;;;3.20;1.87;;;4.40;63.10;;;;;;5046693;28;20025;-65
2023/04/05 03:41:40;;;;;;;3.33;1.63;;;4.40;63.10;;;;;;5043273;28;20037;-67
2023/04/05 03:44:07;;;;;;;3.20;1.80;;;4.40;63.30;;;;;;5048547;28;20086;-65
2023/04/05 03:46:33;;;;;;;2.13;1.52;;;4.30;63.40;;;;;;5044701;28;20029;-70
2023/04/05 03:48:59;;;;;;;1.48;1.38;;;4.30;63.40;;;;;;5031063;28;20037;-65
2023/04/05 03:51:26;;;;;;;2.28;1.20;;;4.30;63.40;;;;;;5029413;28;20029;-63
2023/04/05 03:53:52;;;;;;;2.33;1.23;;;4.30;63.50;;;;;;5042219;28;20036;-65
2023/04/05 03:56:18;;;;;;;2.90;1.58;;;4.20;63.50;;;;;;5035313;28;20017;-70
2023/04/05 03:58:44;;;;;;;2.45;1.40;;;4.20;63.60;;;;;;5021295;28;20033;-69
2023/04/05 04:01:10;;;;;;;3.58;2.15;;;4.20;63.60;;;;;;5024821;28;20388;-65
2023/04/05 04:03:39;;;;;;;2.85;1.98;;;4.20;63.60;;;;;;5019345;28;20401;-64
2023/04/05 04:06:05;;;;;;;2.85;1.67;;;4.20;63.60;;;;;;5008513;28;20029;-70
2023/04/05 04:08:31;;;;;;;2.90;1.75;;;4.20;63.70;;;;;;5048322;28;20495;-64
2023/04/05 04:10:57;;;;;;;2.17;1.65;;;4.10;63.70;;;;;;5025491;28;20017;-70
2023/04/05 04:13:23;;;;;;;3.05;2.13;;;4.10;63.70;;;;;;5023419;28;20036;-70
2023/04/05 04:15:49;;;;;;;2.40;1.73;;;4.10;63.70;;;;;;5025706;28;20112;-64
2023/04/05 04:18:15;;;;;;;2.40;1.40;;;4.10;63.70;;;;;;5027083;28;20133;-64
2023/04/05 04:20:41;;;;;;;2.47;1.20;;;4.00;63.60;;;;;;5025730;28;20033;-64
2023/04/05 04:23:09;;;;;;;2.75;1.50;;;4.00;63.70;;;;;;5027573;28;20036;-71
2023/04/05 04:25:37;;;;;;;1.77;1.40;;;4.00;63.80;;;;;;5025467;28;20028;-70
2023/04/05 04:28:08;;;;;;;6.18;2.15;;;4.00;63.80;;;;;;5014006;28;20029;-70
2023/04/05 04:30:34;;;;;;;2.90;1.98;;;4.00;63.90;;;;;;5027501;28;20412;-65
2023/04/05 04:33:03;;;;;;;2.67;2.03;;;4.00;64.00;;;;;;5019610;28;20033;-69
2023/04/05 04:35:32;;;;;;;1.83;1.40;;;3.90;64.00;;;;;;5019411;28;20026;-65
2023/04/05 04:38:03;;;;;;;2.88;1.80;;;3.90;64.10;;;;;;5025212;28;20451;-64
2023/04/05 04:40:40;;;;;;;2.85;1.80;;;3.90;64.10;;;;;;5015990;28;20053;-64
2023/04/05 04:43:15;;;;;;;2.85;1.48;;;3.80;64.10;;;;;;5015447;28;20068;-70
2023/04/05 04:45:47;;;;;;;3.80;1.70;;;3.80;64.20;;;;;;5019638;28;20034;-64
2023/04/05 04:48:15;;;;;;;3.63;1.25;;;3.80;64.30;;;;;;5023027;28;20024;-64
2023/04/05 04:50:44;;;;;;;2.45;1.48;;;3.70;64.30;;;;;;5020092;28;20026;-64
2023/04/05 04:53:12;;;;;;;3.72;2.38;;;3.70;64.30;;;;;;5003006;28;20037;-65
2023/04/05 04:55:41;;;;;;;6.70;1.50;;;3.70;64.50;;;;;;5016353;28;20025;-70
2023/04/05 04:58:10;;;;;;;1.90;1.30;;;3.70;64.60;;;;;;5024648;28;20025;-71
2023/04/05 05:00:43;;;;;;;2.00;1.70;;;3.70;64.60;;;;;;5017578;28;20029;-70
2023/04/05 05:03:12;;;;;;;3.47;1.63;;;3.70;64.60;;;;;;5025320;28;20053;-70
2023/04/05 05:05:49;;;;;;;4.22;2.00;;;3.60;64.70;;;;;;5023765;28;20410;-71
2023/04/05 05:08:15;;;;;;;2.08;1.50;;;3.70;65.00;;;;;;5014799;28;20038;-64
2023/04/05 05:10:41;;;;;;;2.70;1.17;;;3.60;65.10;;;;;;5024251;28;20116;-65
2023/04/05 05:13:08;;;;;;;2.00;1.73;;;3.60;65.10;;;;;;5022896;28;20439;-64
2023/04/05 05:15:34;;;;;;;2.53;1.60;;;3.60;65.00;;;;;;5016027;28;20021;-64
2023/04/05 05:17:59;;;;;;;2.33;1.50;;;3.60;65.10;;;;;;5040262;28;20140;-65
2023/04/05 05:20:27;;;;;;;1.55;1.45;;;3.60;65.20;;;;;;5016080;28;20026;-64
2023/04/05 05:22:57;;;;;;;2.55;1.83;;;3.60;65.30;;;;;;5016387;28;20052;-64
2023/04/05 05:25:23;;;;;;;2.80;1.92;;;3.60;65.40;;;;;;5036095;28;20481;-63
2023/04/05 05:27:52;;;;;;;1.73;1.45;;;3.50;65.30;;;;;;5043825;28;20025;-64
2023/04/05 05:30:19;;;;;;;4.57;2.63;;;3.60;65.40;;;;;;5041740;28;20032;-65
2023/04/05 05:32:45;;;;;;;2.13;1.45;;;3.60;65.30;;;;;;5022289;28;20090;-64
2023/04/05 05:35:11;;;;;;;2.38;1.58;;;3.70;65.40;;;;;;5032644;28;20426;-63
2023/04/05 05:37:37;;;;;;;2.72;1.70;;;3.70;65.40;;;;;;5040579;28;20033;-64
2023/04/05 05:40:05;;;;;;;4.28;1.58;;;3.70;65.20;;;;;;5016015;28;20026;-69
2023/04/05 05:42:32;;;;;;;1.88;1.75;;;3.80;65.20;;;;;;5019611;28;20092;-70
2023/04/05 05:45:03;;;;;;;2.28;1.42;;;3.80;65.40;;;;;;5043324;28;20052;-70
2023/04/05 05:47:29;;;;;;;3.22;1.75;;;3.90;65.40;;;;;;5038341;28;20032;-70
2023/04/05 05:49:55;;;;;;;2.80;1.83;;;3.90;65.30;;;;;;5017557;28;20487;-70
2023/04/05 05:52:20;;;;;;;8.13;2.25;;;3.90;65.30;;;;;;5032982;28;20037;-70
2023/04/05 05:54:46;;;;;;;2.30;1.13;;;4.00;65.30;;;;;;5037359;28;20480;-70
2023/04/05 05:57:12;;;;;;;4.35;1.80;;;4.00;65.30;;;;;;5046498;28;20029;-64
2023/04/05 05:59:38;;;;;;;3.05;1.50;;;4.00;65.30;;;;;;5048207;28;20052;-63
2023/04/05 06:02:03;;;;;;;6.32;1.83;;;4.10;65.20;;;;;;5045719;28;20029;-64
2023/04/05 06:04:29;;;;;;;2.85;1.38;;;4.20;65.20;;;;;;5039211;28;20532;-71
2023/04/05 06:06:56;;;;;;;2.13;1.67;;;4.20;65.30;;;;;;5004397;28;20142;-65
2023/04/05 06:09:22;;;;;;;4.65;2.33;;;4.20;65.30;;;;;;5047027;28;20539;-64
2023/04/05 06:11:51;;;;;;;2.03;1.67;;;4.30;65.30;;;;;;5044497;28;20029;-65
2023/04/05 06:14:17;;;;;;;2.78;2.25;;;4.40;65.30;;;;;;5043058;28;20385;-68
2023/04/05 06:16:42;;;;;;;3.28;2.10;;;4.50;65.30;;;;;;5041522;28;20041;-70
2023/04/05 06:19:08;;;;;;;4.35;2.22;;;4.60;65.20;;;;;;5022192;28;20084;-70
2023/04/05 06:21:34;;;;;;;3.03;1.88;;;4.60;65.10;;;;;;5024419;28;20025;-70
2023/04/05 06:23:59;;;;;;;2.50;1.63;;;4.70;65.00;;;;;;5040566;28;20029;-64
2023/04/05 06:26:28;;;;;;;10.50;2.60;;;4.80;65.40;;;;;;5030070;28;20087;-69
2023/04/05 06:28:55;;;;;;;3.40;1.60;;;4.90;64.60;;;;;;5035890;28;20025;-65
2023/04/05 06:31:30;;;;;;;2.78;1.55;;;5.10;64.40;;;;;;5041492;28;20048;-64
2023/04/05 06:33:56;;;;;;;4.07;2.30;;;5.20;64.20;;;;;;5034470;28;20507;-63
2023/04/05 06:36:22;;;;;;;2.70;1.55;;;5.30;64.00;;;;;;5039372;28;20025;-63
2023/04/05 06:38:50;;;;;;;3.70;2.13;;;5.40;63.80;;;;;;5031986;28;20039;-64
2023/04/05 06:41:16;;;;;;;2.83;1.70;;;5.40;63.70;;;;;;5040676;28;20042;-64
2023/04/05 06:43:41;;;;;;;1.83;1.67;;;5.50;63.60;;;;;;5041005;28;20051;-65
2023/04/05 06:46:10;;;;;;;2.17;1.98;;;5.60;63.40;;;;;;4999790;28;20043;-70
2023/04/05 06:48:36;;;;;;;3.50;1.73;;;5.60;63.20;;;;;;5045874;28;20430;-71
2023/04/05 06:51:02;;;;;;;3.55;1.58;;;5.70;63.00;;;;;;5029238;28;20036;-63
2023/04/05 06:53:28;;;;;;;3.38;2.10;;;5.80;62.80;;;;;;5047560;28;20429;-66
2023/04/05 06:55:55;;;;;;;2.40;1.45;;;5.90;62.50;;;;;;5026033;28;20025;-64
2023/04/05 06:58:22;;;;;;;4.10;1.90;;;6.00;62.40;;;;;;5048581;28;20499;-72
2023/04/05 07:00:49;;;;;;;3.28;1.98;;;6.10;62.20;;;;;;5019809;28;20361;-65
2023/04/05 07:03:15;;;;;;;2.65;1.83;;;6.10;62.00;;;;;;5034623;28;20401;-64
2023/04/05 07:05:48;;;;;;;3.05;1.73;;;6.20;61.70;;;;;;5022793;28;20022;-62
2023/04/05 07:08:14;;;;;;;2.75;1.75;;;6.30;61.60;;;;;;5043618;28;20025;-61
2023/04/05 07:10:40;;;;;;;2.58;1.30;;;6.30;61.40;;;;;;5031317;28;20029;-71
2023/04/05 07:13:06;;;;;;;7.00;1.42;;;6.40;61.30;;;;;;5029021;28;20446;-70
2023/04/05 07:15:32;;;;;;;2.42;1.85;;;6.50;61.10;;;;;;5022392;28;20408;-62
2023/04/05 07:17:57;;;;;;;2.22;1.88;;;6.60;60.80;;;;;;5036310;28;20049;-63
2023/04/05 07:20:23;;;;;;;3.28;1.98;;;6.60;60.70;;;;;;5017737;28;20388;-63
2023/04/05 07:22:49;;;;;;;2.03;1.83;;;6.70;60.60;;;;;;5045131;28;20127;-71
2023/04/05 07:25:14;;;;;;;3.08;1.40;;;6.80;60.50;;;;;;5041059;28;20033;-70
2023/04/05 07:27:40;;;;;;;1.95;1.23;;;6.80;60.20;;;;;;5033640;28;20060;-62
2023/04/05 07:30:06;;;;;;;1.65;1.13;;;6.90;60.00;;;;;;5043030;28;20123;-71
2023/04/05 07:32:33;;;;;;;4.00;1.42;;;7.00;59.90;;;;;;5019726;28;20139;-70
2023/04/05 07:34:59;;;;;;;2.58;1.45;;;7.10;59.70;;;;;;5045182;28;20096;-71
2023/04/05 07:37:26;;;;;;;1.45;1.10;;;7.20;59.40;;;;;;5000927;28;20444;-71
2023/04/05 07:39:52;;;;;;;2.92;1.23;;;7.30;59.30;;;;;;5040138;28;20033;-62
2023/04/05 07:42:20;;;;;;;1.85;1.20;;;7.30;59.20;;;;;;5046869;28;20336;-63
2023/04/05 07:44:46;;;;;;;2.45;1.75;;;7.40;59.00;;;;;;5042719;28;20037;-63
2023/04/05 07:47:11;;;;;;;1.52;1.05;;;7.50;58.90;;;;;;5028207;28;20037;-63
2023/04/05 07:49:37;;;;;;;4.40;1.23;;;7.60;58.60;;;;;;5043237;28;20040;-64
2023/04/05 07:52:03;;;;;;;1.98;1.27;;;7.70;58.40;;;;;;5038317;28;20064;-64
2023/04/05 07:54:32;;;;;;;1.30;1.20;;;7.80;58.20;;;;;;5032317;28;20037;-64
2023/04/05 07:56:59;;;;;;;2.08;1.33;;;8.00;58.10;;;;;;5041187;28;20439;-64
2023/04/05 07:59:25;;;;;;;5.00;2.25;;;8.10;58.00;;;;;;5023782;28;20025;-64
2023/04/05 08:01:51;;;;;;;1.95;1.20;;;8.10;57.60;;;;;;5018614;28;20033;-71
2023/04/05 08:04:19;;;;;;;6.82;1.35;;;8.20;57.40;;;;;;5033193;28;20447;-71
2023/04/05 08:06:45;;;;;;;2.10;1.52;;;8.30;57.20;;;;;;5043463;28;20357;-71
2023/04/05 08:09:11;;;;;;;1.75;1.40;;;8.30;57.00;;;;;;5043687;28;20064;-64
2023/04/05 08:11:37;;;;;;;2.15;1.42;;;8.40;56.70;;;;;;5033427;28;20507;-64
2023/04/05 08:14:02;;;;;;;1.55;1.30;;;8.50;56.50;;;;;;5038966;28;20047;-64
2023/04/05 08:16:28;;;;;;;2.45;1.58;;;8.60;56.40;;;;;;5048076;28;20033;-70
2023/04/05 08:18:54;;;;;;;1.17;0.90;;;8.70;56.20;;;;;;5042610;28;20065;-71
2023/04/05 08:21:20;;;;;;;1.85;1.10;;;8.80;56.00;;;;;;5026947;28;20124;-64
2023/04/05 08:23:45;;;;;;;1.90;1.30;;;8.80;55.60;;;;;;5043712;28;20113;-71
2023/04/05 08:26:11;;;;;;;1.77;1.40;;;9.00;55.60;;;;;;5033681;28;20041;-70
2023/04/05 08:28:37;;;;;;;1.65;0.73;;;9.00;55.20;;;;;;5037003;28;20469;-70
2023/04/05 08:31:02;;;;;;;2.53;1.40;;;9.10;55.20;;;;;;5016319;28;20030;-63
2023/04/05 08:33:29;;;;;;;1.73;1.15;;;9.20;54.90;;;;;;5014426;28;20059;-64
2023/04/05 08:35:56;;;;;;;2.55;1.25;;;9.30;54.30;;;;;;5038037;28;20022;-62
2023/04/05 08:38:22;;;;;;;2.45;1.40;;;9.30;53.90;;;;;;5039913;28;20025;-67
2023/04/05 08:40:48;;;;;;;0.93;0.68;;;9.40;53.80;;;;;;5021696;28;20045;-63
2023/04/05 08:43:32;;;;;;;3.67;1.33;;;9.40;53.60;;;;;;5013349;28;20556;-63
2023/04/05 08:45:59;;;;;;;3.42;1.10;;;9.50;52.90;;;;;;5024491;28;20028;-62
2023/04/05 08:48:29;;;;;;;2.75;1.23;;;9.50;52.60;;;;;;5024234;28;20128;-71
2023/04/05 08:50:55;;;;;;;1.75;1.40;;;9.60;52.50;;;;;;5024383;28;20029;-71
2023/04/05 08:53:21;;;;;;;1.48;1.10;;;9.70;52.50;;;;;;5025049;28;20021;-70
2023/04/05 08:55:54;;;;;;;1.75;0.63;;;9.90;52.30;;;;;;5040703;28;20393;-63
2023/04/05 08:58:22;;;;;;;1.15;0.75;;;10.00;52.00;;;;;;5046727;28;20372;-70
2023/04/05 09:00:50;;;;;;;2.08;1.02;;;10.10;51.80;;;;;;5036463;28;20079;-72
2023/04/05 09:03:20;;;;;;;2.72;1.42;;;10.20;51.30;;;;;;5042013;28;20032;-63
2023/04/05 09:05:50;;;;;;;1.35;1.10;;;10.20;50.20;;;;;;5034946;28;20025;-71
2023/04/05 09:08:16;;;;;;;2.38;1.33;;;10.20;49.60;;;;;;5039806;28;20041;-63
2023/04/05 09:10:43;;;;;;;2.83;1.20;;;10.30;49.50;;;;;;5035089;28;20358;-63
2023/04/05 09:13:09;;;;;;;1.33;0.90;;;10.30;49.60;;;;;;5037950;28;20024;-70
2023/04/05 09:15:36;;;;;;;1.98;1.25;;;10.40;49.40;;;;;;5021388;28;20037;-71
2023/04/05 09:18:02;;;;;;;3.63;1.30;;;10.50;49.40;;;;;;5037821;28;20052;-71
2023/04/05 09:20:28;;;;;;;1.65;1.27;;;10.60;49.10;;;;;;5045461;28;20060;-63
2023/04/05 09:22:55;;;;;;;3.08;1.60;;;10.70;49.20;;;;;;5035612;28;20554;-71
2023/04/05 09:25:38;;;;;;;1.73;1.40;;;10.80;49.10;;;;;;5035290;28;20013;-63
2023/04/05 09:28:05;;;;;;;2.25;1.45;;;10.90;48.80;;;;;;5044818;28;20044;-63
2023/04/05 09:30:32;;;;;;;1.20;0.90;;;10.90;48.50;;;;;;5035940;28;20479;-62
2023/04/05 09:32:58;;;;;;;3.70;1.60;;;11.00;48.40;;;;;;5019050;28;20032;-71
2023/04/05 09:35:27;;;;;;;1.55;1.20;;;11.10;48.30;;;;;;5035828;28;20045;-71
2023/04/05 09:37:54;;;;;;;2.65;1.30;;;11.20;47.40;;;;;;5023536;28;20021;-70
2023/04/05 09:40:21;;;;;;;2.63;1.30;;;11.30;47.40;;;;;;5035725;28;20566;-71
2023/04/05 09:42:47;;;;;;;1.20;1.10;;;11.40;46.40;;;;;;5039862;28;20095;-71
2023/04/05 09:45:14;;;;;;;1.55;1.13;;;11.40;46.60;;;;;;5032592;28;20025;-71
2023/04/05 09:47:40;;;;;;;1.35;0.90;;;11.60;46.90;;;;;;5034424;28;20120;-70
2023/04/05 09:50:15;;;;;;;1.73;0.95;;;11.70;46.80;;;;;;5040369;28;20032;-70
2023/04/05 09:52:42;;;;;;;2.33;1.00;;;11.80;46.30;;;;;;5041344;28;20484;-64
2023/04/05 09:55:08;;;;;;;2.85;1.00;;;11.90;46.00;;;;;;5042561;28;20388;-63
2023/04/05 09:57:38;;;;;;;1.88;1.08;;;12.00;46.10;;;;;;5045139;28;20026;-64
2023/04/05 10:00:05;;;;;;;2.75;1.25;;;12.10;45.70;;;;;;5042804;28;20075;-71
2023/04/05 10:02:39;;;;;;;1.35;1.20;;;12.10;44.40;;;;;;5041290;28;20496;-63
2023/04/05 10:05:12;;;;;;;1.60;1.13;;;12.10;44.40;;;;;;5043708;28;20028;-70
2023/04/05 10:07:44;;;;;;;1.90;1.50;;;12.10;44.50;;;;;;5042519;28;20029;-63
2023/04/05 10:10:11;;;;;;;2.53;1.23;;;12.10;44.50;;;;;;5038990;28;20516;-70
2023/04/05 10:12:40;;;;;;;1.50;1.20;;;12.20;44.50;;;;;;5046462;28;20029;-70
2023/04/05 10:15:06;;;;;;;1.48;1.05;;;12.40;44.10;;;;;;5016990;28;20021;-70
2023/04/05 10:17:54;;;;;;;2.15;1.40;;;12.50;43.60;;;;;;5024282;28;20098;-63
2023/04/05 10:20:23;;;;;;;1.85;1.20;;;12.70;43.10;;;;;;5043216;28;20028;-71
2023/04/05 10:23:00;;;;;;;1.23;1.10;;;12.70;42.90;;;;;;5050596;28;20040;-64
2023/04/05 10:25:51;;;;;;;0.95;0.95;;;12.70;42.70;;;;;;5047760;28;20048;-70
2023/04/05 10:28:23;;;;;;;2.22;0.88;;;12.90;42.90;;;;;;5043443;28;20074;-71
2023/04/05 10:30:52;;;;;;;1.10;0.80;;;13.10;42.90;;;;;;5047942;28;20029;-71
2023/04/05 10:33:20;;;;;;;1.15;0.82;;;13.30;42.60;;;;;;5048894;28;20776;-63
2023/04/05 10:36:00;;;;;;;1.80;1.23;;;13.40;42.00;;;;;;5042254;28;20052;-71
2023/04/05 10:38:27;;;;;;;2.10;0.98;;;13.40;41.90;;;;;;5043259;28;20024;-65
2023/04/05 10:41:11;;;;;;;0.85;0.85;;;13.50;42.00;;;;;;5045803;28;20568;-62
2023/04/05 10:43:39;;;;;;;1.10;1.00;;;13.60;42.10;;;;;;5043028;28;20400;-70
2023/04/05 10:46:07;;;;;;;1.92;1.25;;;13.60;42.10;;;;;;5044416;28;20021;-70
2023/04/05 10:48:35;;;;;;;1.92;1.20;;;13.70;41.50;;;;;;5038778;28;20059;-71
2023/04/05 10:51:02;;;;;;;2.20;1.23;;;13.70;41.50;;;;;;5024373;28;20496;-63
2023/04/05 10:53:30;;;;;;;1.52;0.98;;;13.70;41.30;;;;;;5028560;28;20510;-63
2023/04/05 10:55:57;;;;;;;2.42;1.48;;;13.60;40.40;;;;;;5019503;28;20469;-71
2023/04/05 10:58:24;;;;;;;4.72;1.30;;;13.50;40.90;;;;;;5043867;28;20035;-70
2023/04/05 11:00:51;;;;;;;2.15;1.20;;;13.60;40.80;;;;;;5045758;28;20029;-71
2023/04/05 11:03:56;;;;;;;1.38;1.10;;;13.80;41.00;;;;;;5036876;28;20204;-71
2023/04/05 11:06:32;;;;;;;1.95;1.15;;;13.90;40.50;;;;;;5038688;28;20041;-70
2023/04/05 11:09:10;;;;;;;1.38;1.02;;;14.10;40.40;;;;;;5044698;28;20037;-63
2023/04/05 11:11:40;;;;;;;1.50;1.20;;;14.30;40.50;;;;;;5045592;28;20029;-64
2023/04/05 11:14:24;;;;;;;3.63;1.20;;;14.50;40.40;;;;;;5030791;28;20036;-64
2023/04/05 11:16:54;;;;;;;2.88;1.10;;;14.60;38.50;;;;;;5038145;28;20037;-70
2023/04/05 11:19:40;;;;;;;2.28;1.30;;;14.60;38.80;;;;;;5041977;28;20096;-70
2023/04/05 11:22:05;;;;;;;2.03;1.05;;;14.60;38.90;;;;;;5038742;28;20493;-70
2023/04/05 11:24:52;;;;;;;1.15;1.00;;;14.70;39.00;;;;;;5040015;28;20497;-69
2023/04/05 11:27:24;;;;;;;1.42;0.95;;;14.80;38.70;;;;;;5029102;28;20041;-70
2023/04/05 11:29:51;;;;;;;0.60;0.60;;;14.80;38.70;;;;;;5037983;28;20044;-70
2023/04/05 11:32:17;;;;;;;3.47;1.27;;;15.00;39.00;;;;;;5026501;28;20512;-70
2023/04/05 11:34:43;;;;;;;1.75;1.25;;;15.10;37.70;;;;;;5043036;28;20075;-70
2023/04/05 11:37:09;;;;;;;8.13;1.58;;;15.00;37.30;;;;;;5046042;28;20025;-63
2023/04/05 11:39:37;;;;;;;1.63;1.10;;;15.00;36.50;;;;;;5044943;28;20541;-63
2023/04/05 11:42:05;;;;;;;1.17;0.80;;;14.80;36.20;;;;;;5019056;28;20140;-70
2023/04/05 11:44:47;;;;;;;1.85;1.35;;;14.90;36.00;;;;;;5039019;28;20116;-71
2023/04/05 11:47:16;;;;;;;3.83;1.00;;;14.90;35.00;;;;;;5041092;28;20530;-70
2023/04/05 11:49:42;;;;;;;2.13;1.15;;;14.80;35.10;;;;;;5045856;28;20515;-70
2023/04/05 11:52:16;;;;;;;0.85;0.85;;;14.70;35.10;;;;;;5043356;28;20029;-63
2023/04/05 11:54:46;;;;;;;2.40;1.38;;;14.80;36.40;;;;;;5034804;28;20022;-63
2023/04/05 11:57:22;;;;;;;3.28;1.35;;;15.00;36.80;;;;;;5035286;28;20017;-63
2023/04/05 11:59:52;;;;;;;1.10;1.00;;;15.30;37.10;;;;;;5038917;28;20036;-64
2023/04/05 12:02:18;;;;;;;4.13;0.98;;;15.40;37.20;;;;;;5041141;28;20029;-70
2023/04/05 12:04:44;;;;;;;1.98;1.02;;;15.60;37.30;;;;;;5041675;28;20035;-63
2023/04/05 12:07:13;;;;;;;1.13;1.00;;;15.80;37.40;;;;;;5039850;28;20029;-65
2023/04/05 12:09:57;;;;;;;1.48;1.10;;;16.10;36.80;;;;;;5048624;28;20036;-63
2023/04/05 12:12:23;;;;;;;1.42;0.98;;;16.40;36.70;;;;;;5040252;28;20034;-70
2023/04/05 12:14:49;;;;;;;1.00;0.90;;;16.50;36.20;;;;;;5042701;28;20037;-71
2023/04/05 12:17:14;;;;;;;1.92;1.27;;;16.60;35.50;;;;;;5024789;28;20088;-70
2023/04/05 12:19:41;;;;;;;2.95;1.20;;;16.60;36.10;;;;;;5038337;28;20056;-71
2023/04/05 12:22:07;;;;;;;1.88;1.10;;;16.70;36.10;;;;;;5022555;28;20080;-64
2023/04/05 12:24:33;;;;;;;2.50;1.45;;;16.80;36.10;;;;;;5040852;28;20037;-64
2023/04/05 12:26:59;;;;;;;2.65;1.17;;;17.00;36.00;;;;;;5025724;28;20512;-71
2023/04/05 12:29:25;;;;;;;4.28;1.58;;;17.00;36.10;;;;;;5020541;28;20145;-71
2023/04/05 12:31:51;;;;;;;4.32;1.30;;;17.10;35.70;;;;;;5038305;28;20508;-71
2023/04/05 12:34:24;;;;;;;1.08;0.80;;;17.00;35.60;;;;;;5020332;28;20080;-71
2023/04/05 12:36:51;;;;;;;1.25;0.68;;;17.10;35.90;;;;;;5021903;28;20032;-70
2023/04/05 12:39:17;;;;;;;0.98;0.93;;;17.30;36.10;;;;;;5022924;28;20025;-71
2023/04/05 12:41:43;;;;;;;6.47;1.13;;;17.40;35.20;;;;;;5044347;28;20120;-70
2023/04/05 12:44:14;;;;;;;2.67;1.23;;;17.30;34.70;;;;;;5029977;28;20158;-70
2023/04/05 12:46:45;;;;;;;1.40;0.80;;;17.20;34.40;;;;;;5036905;28;20057;-71
2023/04/05 12:49:13;;;;;;;1.63;1.10;;;17.20;34.80;;;;;;5031626;28;20067;-63
2023/04/05 12:51:43;;;;;;;1.98;1.50;;;17.30;33.10;;;;;;5038503;28;20051;-71
2023/04/05 12:54:22;;;;;;;1.90;0.90;;;17.10;32.40;;;;;;5020083;28;20029;-70
2023/04/05 12:56:53;;;;;;;2.42;1.83;;;16.90;33.00;;;;;;5035343;28;20045;-63
2023/04/05 12:59:19;;;;;;;1.60;1.20;;;16.80;33.30;;;;;;5045037;28;20464;-63